Centennial, WY (82055)

5:29 AM MDT on September 22, 2014 (GMT -0600)
Aspen Country | Change Station
CLOSE
Current Station
Personal Weather Station
Location: Centennial, WY
Elevation: 8050 ft
Nearby Weather Stations

Elev 8050 ft 41.29 °N, 106.15 °W | Updated 8 minutes ago

Mostly Cloudy
Mostly Cloudy
50.0 °F
Feels Like 50.0 °F
N
2.0
Wind Variable Wind from WNW
Gusts 6.0 mph

Today
High -- | Low -- °F
--% Chance of Precip.
Yesterday
High -- | Low -- °F
Precip. -- in
6:52 AM 7:01 PM
Waning Crescent, 3% visible
Pressure 30.00 in
Visibility 10.0 miles
Clouds Mostly Cloudy 11000 ft
Dew Point 45 °F
Humidity 82%
Rainfall 0.00 in
Snow Depth 0 in , 0 in , 0 in
UV 0 out of 12
Pollen 5.60 out of 12
Air Quality Not available.
Flu Activity Not available.
METAR KLAR 221053Z AUTO 19009KT 10SM BKN110 11/07 A3026 RMK AO2 SLP157 T01110072

More Conditions Fewer Conditions

Pressure 30.00 in
Visibility 10.0 miles
Clouds Mostly Cloudy 11000 ft
Dew Point 45 °F
Humidity 82%
Rainfall 0.00 in
Snow Depth 0 in , 0 in , 0 in
UV 0 out of 12
Pollen 5.60 out of 12
Air Quality Not available.
Flu Activity Not available.
METAR KLAR 221053Z AUTO 19009KT 10SM BKN110 11/07 A3026 RMK AO2 SLP157 T01110072

More Conditions Fewer Conditions

10-Day Weather Forecast

Almanac

Astronomy

Sep. 22, 2014 Rise Set
Actual Time 6:52 AM MDT 7:01 PM MDT
Civil Twilight 6:24 AM MDT 7:29 PM MDT
Nautical Twilight 5:52 AM MDT 8:01 PM MDT
Astronomical Twilight 5:19 AM MDT 8:34 PM MDT
Moon 5:22 AM MDT 6:11 PM MDT
Length of Visible Light 13h 04m
Length of Day
12h 09m
Tomorrow will be 2m 44s shorter.
Waning Crescent, 3% of the Moon is Illuminated
Today
Waning Crescent
Sep 24
New
Oct 1
First Quarter
Oct 8
Full
Oct 15
Last Quarter

Today's Extremes

State Highs State Lows

Community

WunderPhotos

Upload Photos

1,755,409 photos uploaded!

Nearby

Snow Depth

Station Depth Elevation
Lewis Lake Divide 0 in 7850 ft
Phillips Bench 0 in 8200 ft
Reno Hill 0 in 8500 ft
Casper Mountain 0 in 7850 ft
Blind Bull Summit 1 in 8900 ft

Earthquake Activity

City Distance Mag. Time & Date
No recent earthquake activity has been reported nearby.
Minimum magnitude displayed is 2.5.

Coastal Water Temperatures

Place Temperature
No Stations Reporting

Nearby Weather Stations